Airfield :
LOGIN :

Register | Disclaimer

   EN    FR    IT 

 










Legend :    VFR   Marginal VFR   IFR   Intensive IFR   Very Intensive IFR
Visi :
Ceiling :
>= 8 km
>= 3000ft
5 to 8 km
1000 to 3000 ft
1500m to 5 km
500 to 1000 ft
800 to 1500m
200 to 500 ft
< 800m
< 200 ft
Symbols :   Thunderstorms  Fog  Heavy snow  Heavy precipitations  Wind > 20 kt
SIGMETs :     Misc.  Thunderstorms  Icing  Turbulence  Mountain Waves  Volcanic Ashes






- Airport Elevation : 202 ft
- IATA code : LGW


EGKK - London Gatwick

CURRENT METAR :
  • 241220Z 23016G27KT 3700 DZRA BKN007 BKN014 10/10 Q1008

EXPIRED METARs :
  • 241150Z 23018G28KT 3200 -DZRA BKN006 BKN017 10/10 Q1009
  • 241120Z 22017KT 3200 -DZRA BKN006 BKN018 10/10 Q1009 RERA REDZ
  • 241050Z 23018G29KT 4000 DZRA BKN007 BKN014 10/10 Q1010
  • 241020Z 23019KT 5000 -RADZ BKN007 BKN017 10/10 Q1010
  • 240950Z 22017G29KT 9999 FEW008 BKN012 BKN017 11/10 Q1010

TAF TAF EGKK
Valid from the 24 at 12:00 until the 25 at 18:00 UTC


241101Z 2412/2518 22020G30KT 9999 BKN012
TEMPO 2412/2417 4000 -RADZ BKN007
BECMG 2417/2420 26012KT SCT025
PROB30
TEMPO 2507/2516 26015G25KT 7000 SHRA
PROB40
TEMPO 2516/2518 26015G25KT 4000 +SHRAGS BKN012CB



MET'MAP, your aeronautical weather chart ! - Copyright ORBIFLY December 2007 - Disclaimer

ORBIFLY MET'MAP TEAM :

Programming & Development : Alexandra Zaïnal
Concept & original design : Baudouin d'Aumeries
Assistance for programming : Marc-Olivier Méhu
Technical & hardware support : Manuel Goepfert

Contact : metmap@orbifly.com




SOURCES & CREDITS :

   NOAA